Time;durP1;ratioP1;P1;durP2;ratioP2;P2;SDS_P1;SDS_P2;PMS_P1;PMS_P2;Temp;Humidity;BMP_temperature;BMP_pressure;BME280_temperature;BME280_humidity;BME280_pressure;Samples;Min_cycle;Max_cycle;Signal;HPM_P1;HPM_P2
2021/09/03 00:01:08;;;;;;;0.27;0.27;;;;;;;;;;4857851;28;20730;-77
2021/09/03 00:03:31;;;;;;;0.30;0.30;;;11.40;45.70;;;;;;4859473;28;20178;-77
2021/09/03 00:05:54;;;;;;;0.37;0.37;;;;;;;;;;4859976;28;20186;-76
2021/09/03 00:08:18;;;;;;;0.40;0.40;;;11.40;43.80;;;;;;4858969;28;20182;-78
2021/09/03 00:10:40;;;;;;;0.20;0.20;;;11.60;44.20;;;;;;4857923;28;20248;-76
2021/09/03 00:13:03;;;;;;;0.30;0.30;;;;;;;;;;4858270;28;20260;-81
2021/09/03 00:15:26;;;;;;;0.37;0.37;;;11.50;43.90;;;;;;4858078;28;20217;-75
2021/09/03 00:17:48;;;;;;;0.27;0.27;;;11.30;43.80;;;;;;4853030;28;20687;-80
2021/09/03 00:20:14;;;;;;;0.30;0.30;;;11.30;43.50;;;;;;4840231;28;20544;-77
2021/09/03 00:22:37;;;;;;;0.20;0.20;;;10.70;43.40;;;;;;4841185;28;20203;-82
2021/09/03 00:25:01;;;;;;;0.20;0.20;;;11.30;44.50;;;;;;4838986;28;20218;-78
2021/09/03 00:27:24;;;;;;;0.30;0.30;;;11.30;42.60;;;;;;4839986;28;20203;-78
2021/09/03 00:29:46;;;;;;;0.30;0.30;;;10.60;42.30;;;;;;4839652;28;20217;-79
2021/09/03 00:32:09;;;;;;;0.23;0.23;;;;;;;;;;4839016;28;20260;-77
2021/09/03 00:34:32;;;;;;;0.30;0.30;;;;;;;;;;4838583;28;20190;-77
2021/09/03 00:36:54;;;;;;;0.30;0.30;;;11.30;41.40;;;;;;4838930;28;20193;-77
2021/09/03 00:39:17;;;;;;;0.63;0.63;;;11.40;41.30;;;;;;4839179;28;20241;-78
2021/09/03 00:41:41;;;;;;;0.23;0.23;;;11.50;42.00;;;;;;4840086;28;20245;-77
2021/09/03 00:44:03;;;;;;;0.30;0.30;;;11.50;40.70;;;;;;4840132;28;20230;-78
2021/09/03 00:46:26;;;;;;;0.60;0.60;;;11.50;40.80;;;;;;4839804;28;20193;-76
2021/09/03 00:48:48;;;;;;;0.30;0.30;;;11.80;39.70;;;;;;4839211;28;20187;-79
2021/09/03 00:51:11;;;;;;;0.40;0.40;;;11.40;40.10;;;;;;4837692;28;20226;-77
2021/09/03 00:53:34;;;;;;;0.20;0.20;;;11.80;39.40;;;;;;4838131;28;20226;-77
2021/09/03 00:55:58;;;;;;;0.33;0.33;;;11.60;39.70;;;;;;4847609;28;20226;-78
2021/09/03 00:58:21;;;;;;;0.33;0.33;;;11.70;40.30;;;;;;4857360;28;20666;-79
2021/09/03 01:00:44;;;;;;;0.70;0.70;;;;;;;;;;4856652;28;20562;-77
2021/09/03 01:03:07;;;;;;;0.17;0.17;;;;;;;;;;4858824;28;20208;-77
2021/09/03 01:05:30;;;;;;;0.40;0.40;;;11.90;39.80;;;;;;4858384;28;20229;-77
2021/09/03 01:07:54;;;;;;;0.47;0.47;;;11.80;40.00;;;;;;4858501;28;20248;-76
2021/09/03 01:10:19;;;;;;;0.70;0.70;;;12.90;41.50;;;;;;4857679;28;20186;-78
2021/09/03 01:12:41;;;;;;;0.50;0.50;;;11.80;40.20;;;;;;4858976;28;20214;-77
2021/09/03 01:15:07;;;;;;;0.50;0.50;;;11.90;40.80;;;;;;4858591;28;20193;-77
2021/09/03 01:17:30;;;;;;;0.73;0.73;;;11.90;41.10;;;;;;4877629;28;20194;-78
2021/09/03 01:19:52;;;;;;;0.30;0.30;;;11.90;42.30;;;;;;4876956;28;20223;-78
2021/09/03 01:22:22;;;;;;;0.53;0.53;;;11.60;42.90;;;;;;4877872;28;20196;-79
2021/09/03 01:24:45;;;;;;;0.40;0.40;;;;;;;;;;4877456;28;20213;-78
2021/09/03 01:27:08;;;;;;;0.30;0.30;;;12.10;44.00;;;;;;4877562;28;20202;-79
2021/09/03 01:29:30;;;;;;;0.70;0.70;;;;;;;;;;4876646;28;20182;-77
2021/09/03 01:31:53;;;;;;;0.40;0.40;;;;;;;;;;4878024;28;20189;-78
2021/09/03 01:34:15;;;;;;;0.50;0.50;;;11.60;46.10;;;;;;4877512;28;20216;-81
2021/09/03 01:36:38;;;;;;;0.47;0.47;;;11.70;46.30;;;;;;4877274;28;20217;-77
2021/09/03 01:39:03;;;;;;;0.40;0.40;;;11.80;47.20;;;;;;4858710;28;20202;-79
2021/09/03 01:41:26;;;;;;;0.57;0.57;;;11.80;45.50;;;;;;4892203;28;20570;-80
2021/09/03 01:43:49;;;;;;;0.30;0.30;;;12.20;45.60;;;;;;4877368;28;20259;-77
2021/09/03 01:46:12;;;;;;;0.23;0.23;;;;;;;;;;4877335;28;20244;-78
2021/09/03 01:48:34;;;;;;;0.70;0.70;;;;;;;;;;4876014;28;20205;-78
2021/09/03 01:50:57;;;;;;;0.57;0.57;;;;;;;;;;4877099;28;20177;-79
2021/09/03 01:53:20;;;;;;;0.60;0.60;;;;;;;;;;4892218;28;20193;-81
2021/09/03 01:55:44;;;;;;;0.50;0.50;;;11.90;47.40;;;;;;4891985;28;20774;-78
2021/09/03 01:58:06;;;;;;;0.40;0.40;;;;;;;;;;4859203;28;20202;-78
2021/09/03 02:00:29;;;;;;;2.60;2.27;;;12.00;49.60;;;;;;4874146;28;20185;-77
2021/09/03 02:02:51;;;;;;;0.50;0.50;;;11.50;48.80;;;;;;4876774;28;20231;-78
2021/09/03 02:05:14;;;;;;;0.20;0.20;;;;;;;;;;4876828;28;20245;-78
2021/09/03 02:07:37;;;;;;;0.43;0.43;;;;;;;;;;4876511;28;20189;-80
2021/09/03 02:09:59;;;;;;;0.40;0.40;;;11.70;49.20;;;;;;4857864;28;20232;-78
2021/09/03 02:12:23;;;;;;;0.53;0.53;;;12.20;49.40;;;;;;4858549;28;20198;-79
2021/09/03 02:14:46;;;;;;;0.40;0.40;;;12.20;50.10;;;;;;4875884;28;20193;-81
2021/09/03 02:17:09;;;;;;;0.30;0.30;;;;;;;;;;4875133;28;20206;-79
2021/09/03 02:19:31;;;;;;;0.40;0.40;;;11.70;48.60;;;;;;4838653;28;20286;-78
2021/09/03 02:21:54;;;;;;;0.30;0.30;;;;;;;;;;4857179;28;20656;-78
2021/09/03 02:24:16;;;;;;;0.27;0.27;;;11.40;49.10;;;;;;4872370;28;20600;-80
2021/09/03 02:26:39;;;;;;;0.30;0.30;;;;;;;;;;4856841;28;20226;-77
2021/09/03 02:29:03;;;;;;;0.33;0.33;;;11.40;49.00;;;;;;4856274;28;20190;-78
2021/09/03 02:31:26;;;;;;;0.50;0.50;;;11.30;49.00;;;;;;4856927;28;20186;-78
2021/09/03 02:33:48;;;;;;;0.30;0.30;;;12.00;49.20;;;;;;4857121;28;20240;-81
2021/09/03 02:36:11;;;;;;;0.40;0.40;;;11.30;49.00;;;;;;4855499;28;20794;-79
2021/09/03 02:38:34;;;;;;;0.80;0.80;;;;;;;;;;4856323;28;20194;-78
2021/09/03 02:40:57;;;;;;;0.30;0.30;;;;;;;;;;4857261;28;20256;-79
2021/09/03 02:43:20;;;;;;;0.30;0.30;;;11.10;48.20;;;;;;4856893;28;20364;-80
2021/09/03 02:45:43;;;;;;;0.40;0.40;;;11.10;48.80;;;;;;4839100;28;20226;-77
2021/09/03 02:48:06;;;;;;;0.30;0.30;;;11.00;48.30;;;;;;4839114;28;20241;-80
2021/09/03 02:50:29;;;;;;;0.40;0.40;;;11.30;48.10;;;;;;4822137;28;20195;-81
2021/09/03 02:52:55;;;;;;;0.37;0.37;;;11.10;47.60;;;;;;4839181;28;20218;-79
2021/09/03 02:55:18;;;;;;;0.33;0.33;;;;;;;;;;4838645;28;20264;-78
2021/09/03 02:57:41;;;;;;;0.40;0.40;;;11.20;46.80;;;;;;4855318;28;20237;-79
2021/09/03 03:00:06;;;;;;;0.50;0.50;;;11.90;45.80;;;;;;4871223;28;20197;-78
2021/09/03 03:02:30;;;;;;;0.50;0.50;;;11.00;44.90;;;;;;4854547;28;20816;-78
2021/09/03 03:04:53;;;;;;;0.30;0.30;;;;;;;;;;4856662;28;20667;-79
2021/09/03 03:07:15;;;;;;;0.40;0.40;;;11.30;45.00;;;;;;4856373;28;20220;-81
2021/09/03 03:09:38;;;;;;;0.27;0.27;;;;;;;;;;4855759;28;20770;-77
2021/09/03 03:12:00;;;;;;;0.27;0.27;;;10.90;44.60;;;;;;4856669;28;20210;-81
2021/09/03 03:14:32;;;;;;;0.53;0.53;;;11.30;45.70;;;;;;4856236;28;20198;-80
2021/09/03 03:16:55;;;;;;;0.40;0.40;;;11.30;47.30;;;;;;4856171;28;20216;-78
2021/09/03 03:19:19;;;;;;;0.57;0.57;;;11.00;46.70;;;;;;4856536;28;20201;-81
2021/09/03 03:21:42;;;;;;;0.33;0.33;;;10.30;46.90;;;;;;4875195;28;20185;-79
2021/09/03 03:24:05;;;;;;;0.30;0.30;;;10.90;48.20;;;;;;4857737;28;20749;-79
2021/09/03 03:26:27;;;;;;;0.50;0.50;;;11.00;47.70;;;;;;4875193;28;20217;-79
2021/09/03 03:28:50;;;;;;;0.40;0.40;;;;;;;;;;4874840;28;20337;-76
2021/09/03 03:31:13;;;;;;;0.30;0.30;;;10.80;47.30;;;;;;4875644;28;20198;-77
2021/09/03 03:33:35;;;;;;;0.20;0.20;;;10.60;47.90;;;;;;4857997;28;20625;-78
2021/09/03 03:35:59;;;;;;;0.27;0.27;;;10.70;47.30;;;;;;4857699;28;20659;-80
2021/09/03 03:38:22;;;;;;;0.57;0.57;;;;;;;;;;4874897;28;20185;-79
2021/09/03 03:40:44;;;;;;;0.40;0.40;;;;;;;;;;4874697;28;20239;-78
2021/09/03 03:43:07;;;;;;;0.30;0.30;;;;;;;;;;4875447;28;20201;-77
2021/09/03 03:45:29;;;;;;;0.50;0.50;;;10.30;46.20;;;;;;4874726;28;20233;-78
2021/09/03 03:47:52;;;;;;;0.40;0.40;;;;;;;;;;4875154;28;20244;-78
2021/09/03 03:50:15;;;;;;;0.30;0.30;;;;;;;;;;4874727;28;20663;-78
2021/09/03 03:52:39;;;;;;;0.20;0.20;;;10.30;46.00;;;;;;4875950;28;20235;-78
2021/09/03 03:55:01;;;;;;;0.50;0.50;;;9.50;45.80;;;;;;4875067;28;20724;-78
2021/09/03 03:57:24;;;;;;;0.43;0.43;;;;;;;;;;4874924;28;20776;-82
2021/09/03 03:59:46;;;;;;;0.23;0.23;;;10.00;45.40;;;;;;4874549;28;20185;-78
2021/09/03 04:02:09;;;;;;;0.40;0.40;;;9.40;46.70;;;;;;4855561;28;20245;-78
2021/09/03 04:04:31;;;;;;;0.43;0.43;;;10.10;45.60;;;;;;4857213;28;20695;-78
2021/09/03 04:06:54;;;;;;;0.20;0.20;;;;;;;;;;4874344;28;20247;-78
2021/09/03 04:09:18;;;;;;;0.20;0.20;;;10.00;44.50;;;;;;4874088;28;20193;-80
2021/09/03 04:11:41;;;;;;;0.40;0.40;;;;;;;;;;4875130;28;20193;-78
2021/09/03 04:14:04;;;;;;;0.40;0.40;;;10.20;41.40;;;;;;4890673;28;20269;-78
2021/09/03 04:16:26;;;;;;;0.50;0.50;;;10.50;41.60;;;;;;4874400;28;20546;-78
2021/09/03 04:18:49;;;;;;;0.37;0.37;;;;;;;;;;4842708;28;20199;-76
2021/09/03 04:21:11;;;;;;;0.40;0.40;;;10.60;40.10;;;;;;4856277;28;20408;-77
2021/09/03 04:23:34;;;;;;;0.40;0.40;;;;;;;;;;4857315;28;20182;-76
2021/09/03 04:25:58;;;;;;;0.30;0.30;;;10.90;40.20;;;;;;4855842;28;20237;-78
2021/09/03 04:28:20;;;;;;;0.70;0.70;;;;;;;;;;4855544;28;20648;-78
2021/09/03 04:30:43;;;;;;;0.40;0.40;;;10.90;39.20;;;;;;4855852;28;20190;-76
2021/09/03 04:33:05;;;;;;;0.40;0.40;;;11.20;39.40;;;;;;4856328;28;20182;-77
2021/09/03 04:35:28;;;;;;;0.50;0.50;;;12.70;41.10;;;;;;4859396;28;20201;-78
2021/09/03 04:37:52;;;;;;;0.40;0.40;;;11.20;40.00;;;;;;4859170;28;20190;-78
2021/09/03 04:40:15;;;;;;;0.40;0.40;;;10.60;41.50;;;;;;4840853;28;20241;-80
2021/09/03 04:42:39;;;;;;;0.40;0.40;;;11.20;42.30;;;;;;4859319;28;20190;-81
2021/09/03 04:45:02;;;;;;;0.30;0.30;;;;;;;;;;4859062;28;20186;-81
2021/09/03 04:47:24;;;;;;;0.40;0.40;;;11.50;43.60;;;;;;4858909;28;20222;-78
2021/09/03 04:49:47;;;;;;;0.47;0.47;;;11.40;44.70;;;;;;4857924;28;20708;-77
2021/09/03 04:52:13;;;;;;;0.40;0.40;;;11.30;46.40;;;;;;4858336;28;20221;-79
2021/09/03 04:54:36;;;;;;;0.30;0.30;;;;;;;;;;4859025;28;20636;-79
2021/09/03 04:56:59;;;;;;;0.30;0.30;;;;;;;;;;4858654;28;20610;-77
2021/09/03 04:59:23;;;;;;;0.43;0.43;;;11.40;49.70;;;;;;4840111;28;20716;-78
2021/09/03 05:01:45;;;;;;;0.50;0.50;;;11.80;48.70;;;;;;4856952;28;20178;-79
2021/09/03 05:04:08;;;;;;;0.40;0.40;;;10.80;48.40;;;;;;4858777;28;20190;-78
2021/09/03 05:06:31;;;;;;;0.50;0.50;;;;;;;;;;4840563;28;20232;-77
2021/09/03 05:08:53;;;;;;;0.40;0.40;;;;;;;;;;4840084;28;20205;-77
2021/09/03 05:11:16;;;;;;;0.20;0.20;;;;;;;;;;4858419;28;20194;-77
2021/09/03 05:13:38;;;;;;;0.20;0.20;;;11.50;49.30;;;;;;4858685;28;20277;-76
2021/09/03 05:16:02;;;;;;;0.30;0.30;;;11.80;51.30;;;;;;4858760;28;20198;-79
2021/09/03 05:18:25;;;;;;;0.70;0.70;;;;;;;;;;4869135;28;20189;-79
2021/09/03 05:20:47;;;;;;;0.37;0.37;;;12.00;51.60;;;;;;4877702;28;20189;-77
2021/09/03 05:23:10;;;;;;;0.20;0.20;;;;;;;;;;4877999;28;20320;-77
2021/09/03 05:25:32;;;;;;;0.27;0.27;;;11.60;53.40;;;;;;4876969;28;20202;-77
2021/09/03 05:27:55;;;;;;;0.40;0.40;;;11.90;53.40;;;;;;4877566;28;20205;-77
2021/09/03 05:30:18;;;;;;;0.20;0.20;;;;;;;;;;4876929;28;20189;-78
2021/09/03 05:32:42;;;;;;;0.30;0.30;;;11.80;55.20;;;;;;4877312;28;20199;-76
2021/09/03 05:35:06;;;;;;;0.30;0.30;;;11.70;53.00;;;;;;4891870;28;20243;-77
2021/09/03 05:37:29;;;;;;;0.40;0.40;;;12.30;53.50;;;;;;4877409;28;20220;-77
2021/09/03 05:39:51;;;;;;;0.30;0.30;;;12.60;52.60;;;;;;4876629;28;20189;-77
2021/09/03 05:42:14;;;;;;;0.27;0.27;;;;;;;;;;4877132;28;20563;-78
2021/09/03 05:44:37;;;;;;;0.30;0.30;;;;;;;;;;4876674;28;20558;-76
2021/09/03 05:46:59;;;;;;;0.20;0.20;;;12.30;53.90;;;;;;4859131;28;20609;-78
2021/09/03 05:49:23;;;;;;;0.30;0.30;;;12.10;53.80;;;;;;4858292;28;20201;-78
2021/09/03 05:51:45;;;;;;;0.40;0.40;;;11.90;53.50;;;;;;4859155;28;20256;-77
2021/09/03 05:54:08;;;;;;;0.30;0.30;;;;;;;;;;4859444;28;20209;-78
2021/09/03 05:56:31;;;;;;;0.37;0.37;;;12.60;54.40;;;;;;4876723;28;20233;-81
2021/09/03 05:58:54;;;;;;;0.30;0.30;;;12.40;54.80;;;;;;4875798;28;20678;-77
2021/09/03 06:01:17;;;;;;;0.40;0.40;;;;;;;;;;4874874;28;20240;-78
2021/09/03 06:03:40;;;;;;;0.20;0.20;;;;;;;;;;4876940;28;20197;-78
2021/09/03 06:06:03;;;;;;;0.33;0.33;;;12.90;55.70;;;;;;4877010;28;20193;-77
2021/09/03 06:08:26;;;;;;;0.90;0.90;;;;;;;;;;4875716;28;20237;-78
2021/09/03 06:10:49;;;;;;;0.30;0.30;;;;;;;;;;4876655;28;20643;-79
2021/09/03 06:13:12;;;;;;;0.20;0.20;;;;;;;;;;4876436;28;20259;-79
2021/09/03 06:15:34;;;;;;;0.40;0.40;;;12.90;56.20;;;;;;4876414;28;20209;-78
2021/09/03 06:17:57;;;;;;;0.20;0.20;;;;;;;;;;4876829;28;20181;-77
2021/09/03 06:20:20;;;;;;;0.43;0.43;;;;;;;;;;4875357;28;20197;-77
2021/09/03 06:22:43;;;;;;;0.30;0.30;;;12.10;56.40;;;;;;4876468;28;20243;-81
2021/09/03 06:25:06;;;;;;;0.23;0.23;;;13.40;58.70;;;;;;4876443;28;20752;-77
2021/09/03 06:27:30;;;;;;;0.53;0.53;;;13.30;59.90;;;;;;4875699;28;20268;-77
2021/09/03 06:29:53;;;;;;;0.40;0.40;;;;;;;;;;4875469;28;20721;-78
2021/09/03 06:32:17;;;;;;;0.20;0.20;;;13.60;61.00;;;;;;4891677;28;20199;-78
2021/09/03 06:34:41;;;;;;;0.40;0.40;;;13.30;59.00;;;;;;4876104;28;20208;-79
2021/09/03 06:37:04;;;;;;;0.23;0.23;;;;;;;;;;4876052;28;20243;-81
2021/09/03 06:39:28;;;;;;;0.27;0.27;;;14.00;65.70;;;;;;4875315;28;20713;-79
2021/09/03 06:41:50;;;;;;;0.20;0.20;;;14.20;69.90;;;;;;4876231;28;20232;-77
2021/09/03 06:44:13;;;;;;;0.30;0.30;;;;;;;;;;4876594;28;20197;-79
2021/09/03 06:46:35;;;;;;;0.30;0.30;;;14.60;71.10;;;;;;4875680;28;20187;-80
2021/09/03 06:48:58;;;;;;;0.23;0.23;;;14.30;72.30;;;;;;4875210;28;20193;-77
2021/09/03 06:51:20;;;;;;;0.60;0.60;;;13.60;77.30;;;;;;4876116;28;20266;-78
2021/09/03 06:53:43;;;;;;;0.20;0.20;;;;;;;;;;4874619;28;20201;-78
2021/09/03 06:56:07;;;;;;;0.30;0.30;;;14.40;32.70;;;;;;4874895;28;20228;-81
2021/09/03 06:58:29;;;;;;;0.97;0.97;;;14.70;36.20;;;;;;4874886;28;20608;-82
2021/09/03 07:00:52;;;;;;;0.30;0.30;;;;;;;;;;4872670;28;20239;-80
2021/09/03 07:03:14;;;;;;;0.17;0.17;;;15.10;57.00;;;;;;4841572;28;20707;-80
2021/09/03 07:05:37;;;;;;;0.20;0.20;;;;;;;;;;4875832;28;20214;-80
2021/09/03 07:08:00;;;;;;;0.27;0.27;;;15.40;49.60;;;;;;4857883;28;20276;-78
2021/09/03 07:10:22;;;;;;;0.50;0.50;;;15.30;75.00;;;;;;4873157;28;20231;-76
2021/09/03 07:12:46;;;;;;;0.50;0.50;;;15.60;85.00;;;;;;4875586;28;20550;-78
2021/09/03 07:15:10;;;;;;;0.30;0.30;;;15.50;88.60;;;;;;4875742;28;20199;-77
2021/09/03 07:17:32;;;;;;;0.40;0.40;;;16.90;58.70;;;;;;4871012;28;20178;-80
2021/09/03 07:19:55;;;;;;;0.30;0.30;;;16.80;56.30;;;;;;4837461;28;20195;-78
2021/09/03 07:22:23;;;;;;;0.10;0.10;;;17.00;52.50;;;;;;4855833;28;20202;-82
2021/09/03 07:24:50;;;;;;;0.30;0.30;;;;;;;;;;4860003;28;20185;-78
2021/09/03 07:27:12;;;;;;;0.20;0.20;;;17.80;49.50;;;;;;4875350;28;20213;-78
2021/09/03 07:29:36;;;;;;;0.50;0.50;;;17.80;49.50;;;;;;4874583;28;20190;-81
2021/09/03 07:31:59;;;;;;;0.23;0.23;;;;;;;;;;4857819;28;20185;-78
2021/09/03 07:34:21;;;;;;;0.77;0.67;;;18.20;50.40;;;;;;4875677;28;20690;-78
2021/09/03 07:36:44;;;;;;;0.23;0.23;;;;;;;;;;4875112;28;20210;-75
2021/09/03 07:39:07;;;;;;;0.30;0.30;;;;;;;;;;4875021;28;20250;-79
2021/09/03 07:41:29;;;;;;;0.60;0.60;;;19.20;51.40;;;;;;4875418;28;20540;-78
2021/09/03 07:43:52;;;;;;;0.47;0.40;;;19.40;51.00;;;;;;4875463;28;20181;-79
2021/09/03 07:46:16;;;;;;;0.30;0.30;;;19.50;51.80;;;;;;4875808;28;20189;-79
2021/09/03 07:48:42;;;;;;;0.77;0.77;;;19.80;51.60;;;;;;4890201;28;20270;-79
2021/09/03 07:51:05;;;;;;;0.40;0.30;;;;;;;;;;4875429;28;20238;-80
2021/09/03 07:53:27;;;;;;;1.03;0.80;;;;;;;;;;4875301;28;20232;-78
2021/09/03 07:55:50;;;;;;;0.40;0.40;;;;;;;;;;4875177;28;20219;-78
2021/09/03 07:58:13;;;;;;;0.30;0.30;;;20.20;52.60;;;;;;4875454;28;20174;-76
2021/09/03 08:00:37;;;;;;;3.77;3.10;;;20.80;53.10;;;;;;4872629;28;20569;-78
2021/09/03 08:03:03;;;;;;;0.30;0.30;;;20.30;52.90;;;;;;4871284;28;20763;-79
2021/09/03 08:05:26;;;;;;;0.50;0.50;;;20.20;52.80;;;;;;4855946;28;20545;-77
2021/09/03 08:07:49;;;;;;;0.30;0.30;;;20.50;52.90;;;;;;4857812;28;20214;-83
2021/09/03 08:10:12;;;;;;;0.63;0.57;;;20.20;53.30;;;;;;4859287;28;20182;-82
2021/09/03 08:12:35;;;;;;;0.50;0.50;;;;;;;;;;4859413;28;20193;-81
2021/09/03 08:14:58;;;;;;;0.77;0.50;;;19.70;52.60;;;;;;4859765;28;20248;-76
2021/09/03 08:17:20;;;;;;;1.07;0.80;;;20.20;52.70;;;;;;4860830;28;20233;-78
2021/09/03 08:19:45;;;;;;;0.40;0.40;;;19.80;53.10;;;;;;4878488;28;20212;-81
2021/09/03 08:22:08;;;;;;;0.37;0.37;;;20.30;52.80;;;;;;4878953;28;20255;-82
2021/09/03 08:24:31;;;;;;;1.03;0.83;;;;;;;;;;4860515;28;20252;-82
2021/09/03 08:26:53;;;;;;;0.50;0.50;;;19.70;52.80;;;;;;4878515;28;20230;-78
2021/09/03 08:29:15;;;;;;;0.40;0.40;;;19.80;52.50;;;;;;4859949;28;20249;-81
2021/09/03 08:31:38;;;;;;;0.60;0.40;;;20.90;53.00;;;;;;4878473;28;20189;-78
2021/09/03 08:34:01;;;;;;;0.57;0.53;;;;;;;;;;4878550;28;20635;-81
2021/09/03 08:36:24;;;;;;;0.70;0.67;;;20.80;53.60;;;;;;4878311;28;20216;-83
2021/09/03 08:38:47;;;;;;;0.63;0.53;;;20.40;52.90;;;;;;4877675;28;20231;-81
2021/09/03 08:41:10;;;;;;;0.50;0.50;;;;;;;;;;4878605;28;20198;-77
2021/09/03 08:43:33;;;;;;;0.50;0.40;;;20.20;52.90;;;;;;4860324;28;20260;-80
2021/09/03 08:45:56;;;;;;;0.40;0.40;;;20.80;54.10;;;;;;4878467;28;20256;-88
2021/09/03 08:48:20;;;;;;;0.83;0.63;;;;;;;;;;4877606;28;20554;-82
2021/09/03 08:50:42;;;;;;;0.63;0.50;;;21.40;53.60;;;;;;4877992;28;20184;-78
2021/09/03 08:53:07;;;;;;;0.67;0.53;;;22.20;54.20;;;;;;4878493;28;20194;-78
2021/09/03 08:55:29;;;;;;;1.10;0.90;;;21.90;55.10;;;;;;4878744;28;20228;-79
2021/09/03 08:57:55;;;;;;;0.43;0.37;;;23.00;55.70;;;;;;4878430;28;20280;-81
2021/09/03 09:00:25;;;;;;;0.60;0.47;;;23.20;56.20;;;;;;4877342;28;20188;-77
2021/09/03 09:03:07;;;;;;;0.40;0.40;;;23.90;56.10;;;;;;4878011;28;20174;-78
2021/09/03 09:05:55;;;;;;;1.50;0.90;;;25.80;42.60;;;;;;4877859;28;20210;-80
2021/09/03 09:08:45;;;;;;;1.47;1.07;;;28.50;45.70;;;;;;4877275;28;20227;-79
2021/09/03 09:11:17;;;;;;;1.33;0.80;;;30.20;46.30;;;;;;4859893;28;20210;-81
2021/09/03 09:13:42;;;;;;;1.87;0.80;;;32.00;47.50;;;;;;4859759;28;20286;-81
2021/09/03 09:16:09;;;;;;;1.53;0.70;;;33.30;48.80;;;;;;4877459;28;20188;-79
2021/09/03 09:18:37;;;;;;;5.10;2.47;;;33.80;48.90;;;;;;4863671;28;20199;-79
2021/09/03 09:21:07;;;;;;;1.23;0.60;;;35.30;49.50;;;;;;4840259;28;20617;-84
2021/09/03 09:23:40;;;;;;;5.37;1.93;;;35.90;50.30;;;;;;4858507;28;20259;-81
2021/09/03 09:26:04;;;;;;;0.98;0.50;;;36.60;50.20;;;;;;4875635;28;20278;-87
2021/09/03 09:28:27;;;;;;;8.88;2.80;;;36.70;50.60;;;;;;4876388;28;20251;-84
2021/09/03 09:30:51;;;;;;;1.73;0.70;;;;;;;;;;4877095;28;20215;-78
2021/09/03 09:33:16;;;;;;;3.72;1.15;;;38.20;51.00;;;;;;4877221;28;20182;-83
2021/09/03 09:35:43;;;;;;;3.75;1.08;;;38.60;51.60;;;;;;4858813;28;20293;-81
2021/09/03 09:38:08;;;;;;;3.70;1.00;;;39.30;51.70;;;;;;4877193;28;20189;-79
2021/09/03 09:40:44;;;;;;;6.05;1.63;;;39.80;52.20;;;;;;4875996;28;20238;-82
2021/09/03 09:43:23;;;;;;;3.70;0.90;;;40.00;52.20;;;;;;4876972;28;20181;-81
2021/09/03 09:45:46;;;;;;;4.32;1.02;;;41.00;51.90;;;;;;4876906;28;20197;-77
2021/09/03 09:48:08;;;;;;;3.97;0.90;;;41.30;52.60;;;;;;4876645;28;20559;-83
2021/09/03 09:50:32;;;;;;;8.18;1.88;;;41.60;52.90;;;;;;4875925;28;20670;-77
2021/09/03 09:53:11;;;;;;;5.20;1.13;;;42.00;52.50;;;;;;4858555;28;20238;-80
2021/09/03 09:55:34;;;;;;;9.05;1.98;;;43.00;53.00;;;;;;4875905;28;20221;-80
2021/09/03 09:57:57;;;;;;;2.22;0.52;;;;;;;;;;4876897;28;20204;-82
2021/09/03 10:00:21;;;;;;;6.05;1.38;;;42.80;53.40;;;;;;4875335;28;20209;-79
2021/09/03 10:02:44;;;;;;;5.20;1.25;;;43.00;52.80;;;;;;4857679;28;20193;-85
2021/09/03 10:05:08;;;;;;;3.33;0.88;;;43.10;52.80;;;;;;4876643;28;20189;-85
2021/09/03 10:07:30;;;;;;;6.00;1.48;;;;;;;;;;4876300;28;20208;-80
2021/09/03 10:09:53;;;;;;;3.53;0.90;;;43.40;53.00;;;;;;4875577;28;20824;-83
2021/09/03 10:12:16;;;;;;;2.95;0.85;;;43.30;53.00;;;;;;4876471;28;20181;-82
2021/09/03 10:14:39;;;;;;;2.92;0.70;;;43.70;53.10;;;;;;4876285;28;20277;-81
2021/09/03 10:17:03;;;;;;;2.78;0.85;;;43.20;53.60;;;;;;4876417;28;20280;-82
2021/09/03 10:19:28;;;;;;;4.75;1.30;;;42.70;53.40;;;;;;4857947;28;20198;-79
2021/09/03 10:21:54;;;;;;;2.80;0.80;;;41.80;52.50;;;;;;4876867;28;20239;-81
2021/09/03 10:24:23;;;;;;;1.98;0.60;;;40.20;52.60;;;;;;4876826;28;20181;-83
2021/09/03 10:26:47;;;;;;;3.92;1.05;;;38.10;51.80;;;;;;4876707;28;20216;-80
2021/09/03 10:29:25;;;;;;;1.67;0.52;;;37.50;51.60;;;;;;4875747;28;20429;-82
2021/09/03 10:32:26;;;;;;;2.22;0.77;;;37.90;51.80;;;;;;4891371;28;20196;-82
2021/09/03 10:35:07;;;;;;;3.67;1.10;;;37.60;51.60;;;;;;4876168;28;20185;-79
2021/09/03 10:37:35;;;;;;;5.10;1.48;;;38.40;51.90;;;;;;4869473;28;20201;-85
2021/09/03 10:40:04;;;;;;;2.90;0.82;;;38.40;51.30;;;;;;4875738;28;20238;-81
2021/09/03 10:43:02;;;;;;;5.82;1.42;;;38.30;51.90;;;;;;4875996;28;20181;-80
2021/09/03 10:45:30;;;;;;;5.95;1.65;;;39.10;52.10;;;;;;4835739;28;20195;-80
2021/09/03 10:48:08;;;;;;;3.63;1.00;;;40.30;52.00;;;;;;4868414;28;20561;-79
2021/09/03 10:50:36;;;;;;;5.85;1.55;;;41.00;52.70;;;;;;4875152;28;20224;-80
2021/09/03 10:53:22;;;;;;;3.70;1.15;;;41.70;52.50;;;;;;4859591;28;20201;-81
2021/09/03 10:55:57;;;;;;;3.58;1.00;;;42.00;53.20;;;;;;4873780;28;20225;-79
2021/09/03 10:58:44;;;;;;;4.40;1.13;;;41.90;52.90;;;;;;4876132;28;20185;-77
2021/09/03 11:01:31;;;;;;;3.72;1.00;;;43.00;53.40;;;;;;4876961;28;20200;-78
2021/09/03 11:03:57;;;;;;;3.97;1.10;;;44.30;54.00;;;;;;4859465;28;20579;-78
2021/09/03 11:06:29;;;;;;;5.07;1.23;;;45.20;54.20;;;;;;4857540;28;20198;-81
2021/09/03 11:08:54;;;;;;;3.58;1.00;;;44.20;54.00;;;;;;4876614;28;20231;-80
2021/09/03 11:11:26;;;;;;;2.20;0.73;;;42.70;53.50;;;;;;4875502;28;20666;-79
2021/09/03 11:13:49;;;;;;;3.83;1.05;;;40.90;52.90;;;;;;4875787;28;20551;-80
2021/09/03 11:16:31;;;;;;;2.13;0.63;;;39.30;52.40;;;;;;4876570;28;20204;-80
2021/09/03 11:19:07;;;;;;;2.95;0.95;;;37.30;51.70;;;;;;4856887;28;20204;-77
2021/09/03 11:21:36;;;;;;;4.63;1.35;;;35.40;50.90;;;;;;4875797;28;20188;-80
2021/09/03 11:23:59;;;;;;;2.70;0.75;;;36.90;50.70;;;;;;4876030;28;20201;-79
2021/09/03 11:26:22;;;;;;;4.95;1.38;;;39.20;51.50;;;;;;4877179;28;20208;-79
2021/09/03 11:28:45;;;;;;;3.83;1.02;;;40.50;52.00;;;;;;4891907;28;20204;-81
2021/09/03 11:31:08;;;;;;;2.65;0.75;;;42.20;53.30;;;;;;4858838;28;20205;-77
2021/09/03 11:33:31;;;;;;;5.50;1.45;;;43.60;53.10;;;;;;4875606;28;20185;-80
2021/09/03 11:36:03;;;;;;;3.53;1.00;;;44.10;53.50;;;;;;4875282;28;20207;-77
2021/09/03 11:38:26;;;;;;;11.30;2.78;;;;;;;;;;4876713;28;20181;-79
2021/09/03 11:40:49;;;;;;;3.78;1.00;;;;;;;;;;4875928;28;20208;-78
2021/09/03 11:43:12;;;;;;;2.72;0.82;;;46.20;54.10;;;;;;4877692;28;20246;-79
2021/09/03 11:45:43;;;;;;;5.30;1.40;;;46.20;54.10;;;;;;4879387;28;20706;-83
2021/09/03 11:48:07;;;;;;;3.40;1.00;;;45.60;54.30;;;;;;4880109;28;20250;-77
2021/09/03 11:50:32;;;;;;;5.93;1.48;;;45.80;54.30;;;;;;4894412;28;20665;-78
2021/09/03 11:52:56;;;;;;;3.75;0.98;;;45.70;54.60;;;;;;4879675;28;20592;-82
2021/09/03 11:55:34;;;;;;;4.57;1.15;;;43.80;54.00;;;;;;4894521;28;20207;-82
2021/09/03 11:58:01;;;;;;;2.38;0.60;;;43.40;53.20;;;;;;4879197;28;20197;-78
2021/09/03 12:00:26;;;;;;;12.98;3.22;;;43.80;53.90;;;;;;4877028;28;20259;-77
2021/09/03 12:02:50;;;;;;;3.10;0.85;;;43.50;53.30;;;;;;4879178;28;20231;-80
2021/09/03 12:05:20;;;;;;;2.75;0.80;;;42.60;53.50;;;;;;4878883;28;20540;-89
2021/09/03 12:08:08;;;;;;;3.08;0.98;;;42.50;52.80;;;;;;4879134;28;20189;-81
2021/09/03 12:10:53;;;;;;;4.63;1.50;;;40.50;52.80;;;;;;4877975;28;20642;-79
2021/09/03 12:13:24;;;;;;;2.63;0.70;;;40.60;52.00;;;;;;4879627;28;20193;-83
2021/09/03 12:16:01;;;;;;;3.85;1.05;;;42.30;53.30;;;;;;4861410;28;20208;-79
2021/09/03 12:18:31;;;;;;;15.95;3.33;;;43.90;53.20;;;;;;4878005;28;20647;-81
2021/09/03 12:21:02;;;;;;;5.32;1.20;;;42.70;52.80;;;;;;4877687;28;20319;-80
2021/09/03 12:23:46;;;;;;;8.18;1.48;;;43.30;53.60;;;;;;4878251;28;20193;-79
2021/09/03 12:26:15;;;;;;;7.72;1.23;;;45.10;53.30;;;;;;4894247;28;20721;-86
2021/09/03 12:28:42;;;;;;;18.73;3.10;;;46.80;54.90;;;;;;4878750;28;20615;-77
2021/09/03 12:31:12;;;;;;;4.80;1.00;;;46.80;54.20;;;;;;4878720;28;20567;-77
2021/09/03 12:33:35;;;;;;;10.18;1.88;;;;;;;;;;4878138;28;20232;-81
2021/09/03 12:36:03;;;;;;;2.58;0.50;;;41.90;53.30;;;;;;4878067;28;20213;-79
2021/09/03 12:38:34;;;;;;;17.52;3.03;;;41.50;53.00;;;;;;4877356;28;20831;-80
2021/09/03 12:41:06;;;;;;;5.68;1.08;;;41.60;52.60;;;;;;4877978;28;20217;-77
2021/09/03 12:43:31;;;;;;;8.73;1.65;;;41.60;53.10;;;;;;4877837;28;20181;-80
2021/09/03 12:45:54;;;;;;;4.72;0.95;;;40.30;52.70;;;;;;4878222;28;20181;-78
2021/09/03 12:48:17;;;;;;;4.35;0.88;;;;;;;;;;4877691;28;20732;-78
2021/09/03 12:50:46;;;;;;;1.88;0.40;;;36.00;51.30;;;;;;4877793;28;20204;-77
2021/09/03 12:53:20;;;;;;;4.32;0.95;;;34.50;50.60;;;;;;4877896;28;20588;-81
2021/09/03 12:55:44;;;;;;;4.90;1.00;;;37.50;51.30;;;;;;4876820;28;20228;-77
2021/09/03 12:58:07;;;;;;;5.05;0.98;;;39.60;52.30;;;;;;4878543;28;20189;-77
2021/09/03 13:00:38;;;;;;;36.05;6.97;;;41.20;53.00;;;;;;4875492;28;20213;-79